M/V Raymond M. — WDC4224 — position and weather

sailwx.info

Track history (hours):
 
Tides and Currents Weather Stations Pressure Air Temp Water Temp Dewpoint Dewpoint Depression Visibility Wind Speed Wind Dir Waves Ship Positions

M/V Raymond M.

Owner: RM Leasing, Clute, TX. More information available from US FCC via Universal Licensing System and Coast Guard Vessel Documentation Center.

Last reported at 2017-Jun-08 23:49 UTC. Time now 2017-Jun-28 08:45 UTC.
Position N 29°38' W 092°16'.
Warning: this ship's position is 19 days out of date.

; draft 2.2 m.

MMSI: 367021170.

Date/timePositionNaut miles runAvg speedWind from/ knotsBaromVisibWave heightAir tempDewpointWater temp
2017-Jun-08 23:49N 29°38' W 092°16'310.8
2017-Jun-08 23:30N 29°41' W 092°15'510.0
2017-Jun-08 23:00N 29°45' W 092°12'4 7.8
2017-Jun-08 22:30N 29°48' W 092°09'0 0.0
2017-Jun-08 22:00N 29°48' W 092°09'1 2.1
2017-Jun-08 21:30N 29°47' W 092°10'2 1.5
2017-Jun-08 20:27N 29°47' W 092°11'0 0.0
2017-Jun-08 20:00N 29°47' W 092°11'0 0.0
2017-Jun-08 19:30N 29°47' W 092°11'2 4.5
2017-Jun-08 19:00N 29°45' W 092°13'4 8.7
2017-Jun-08 18:31N 29°41' W 092°15'6 0.6
2017-Jun-08 07:51N 29°36' W 092°18'410.1
2017-Jun-08 07:30N 29°39' W 092°16'510.8
2017-Jun-08 07:01N 29°44' W 092°15'4 8.5
2017-Jun-08 06:31N 29°47' W 092°11'0 0.2
2017-Jun-08 04:25N 29°47' W 092°11'1 3.6
2017-Jun-08 04:01N 29°45' W 092°12'510.8
2017-Jun-08 03:30N 29°41' W 092°15'611.2
2017-Jun-08 03:00N 29°36' W 092°18'  
2017-Jun-01 00:36N 29°49' W 093°20'0 0.1
2017-Jun-01 00:27N 29°49' W 093°20'  
Track history (hours):
 
Tides and Currents Weather Stations Pressure Air Temp Water Temp Dewpoint Dewpoint Depression Visibility Wind Speed Wind Dir Waves Ship Positions

M/V Raymond M.

Owner: RM Leasing, Clute, TX. More information available from US FCC via Universal Licensing System and Coast Guard Vessel Documentation Center.

Last reported at 2017-Jun-08 23:49 UTC. Time now 2017-Jun-28 08:45 UTC.
Position N 29°38' W 092°16'.
Warning: this ship's position is 19 days out of date.

; draft 2.2 m.

MMSI: 367021170.

Date/timePositionNaut miles runAvg speedWind from/ knotsBaromVisibWave heightAir tempDewpointWater temp
2017-Jun-08 23:49N 29°38' W 092°16'310.8
2017-Jun-08 23:30N 29°41' W 092°15'510.0
2017-Jun-08 23:00N 29°45' W 092°12'4 7.8
2017-Jun-08 22:30N 29°48' W 092°09'0 0.0
2017-Jun-08 22:00N 29°48' W 092°09'1 2.1
2017-Jun-08 21:30N 29°47' W 092°10'2 1.5
2017-Jun-08 20:27N 29°47' W 092°11'0 0.0
2017-Jun-08 20:00N 29°47' W 092°11'0 0.0
2017-Jun-08 19:30N 29°47' W 092°11'2 4.5
2017-Jun-08 19:00N 29°45' W 092°13'4 8.7
2017-Jun-08 18:31N 29°41' W 092°15'6 0.6
2017-Jun-08 07:51N 29°36' W 092°18'410.1
2017-Jun-08 07:30N 29°39' W 092°16'510.8
2017-Jun-08 07:01N 29°44' W 092°15'4 8.5
2017-Jun-08 06:31N 29°47' W 092°11'0 0.2
2017-Jun-08 04:25N 29°47' W 092°11'1 3.6
2017-Jun-08 04:01N 29°45' W 092°12'510.8
2017-Jun-08 03:30N 29°41' W 092°15'611.2
2017-Jun-08 03:00N 29°36' W 092°18'  
2017-Jun-01 00:36N 29°49' W 093°20'0 0.1
2017-Jun-01 00:27N 29°49' W 093°20'  

Dump ship's entire track history